Terminal Aerodrome Forecast
Issued by NWS

Home | Current Version | Previous Version | Text Only | Print | Product List | Glossary On
Versions: 1 2 3 4 5 6 7 8 9 10 11 12 13 14 15 16 17
000
FTUS46 KLOX 202106 AAA
TAFSBA
TAF AMD
KSBA 202106Z 2021/2118 34012G24KT P6SM SKC
     FM202300 28018G23KT P6SM SKC
     FM210000 30014G20KT P6SM SKC
     FM210300 33008KT P6SM SKC WS010/01030KT
     FM210900 VRB03KT P6SM SKC=

USA.gov is the U.S. government's official web portal to all federal, state and local government web resources and services.